Terminal Aerodrome Forecast
Issued by NWS Pocatello, ID

Home | Current Version | Previous Version | Text Only | Print | Product List | Glossary On
Versions: 1 2 3 4 5 6 7 8 9 10 11 12
000
FTUS45 KPIH 310500
TAFIDA
TAF
KIDA 310520Z 3106/0106 04006KT P6SM FEW070 SCT120 SCT180
     FM311900 36010KT P6SM VCTS SCT090CB SCT140 BKN200
     FM010200 03006KT P6SM SCT140 SCT200=

USA.gov is the U.S. government's official web portal to all federal, state and local government web resources and services.